Nearby METAR Reports

 

KCMH - Columbus, Ohio, USA
Distance from station: SW 5mi, 8km
Updated: Fri, 14-Dec-2018 4:51pm EST
Overcast
Overcast
 Wind from E
Wind: E 5 mph , 7 km/h
Temperature: 52°F , 11°C
Dew Point: 39°F , 4°C
Humidity: 62%
Barometer: 30.12 inHg , 1020 hPa
Clouds: Overcast
Visibility: 10 miles , 16 km
Cloud details: Partly cloudy 7000 ft
Overcast 21000 ft
2018/12/14 21:51 KCMH 142151Z 10004KT 10SM SCT070 OVC210 11/04 A3012 RMK AO2 SLP202 T01110044
KOSU - Columbus/St Univ, Ohio, USA
Distance from station: W 14mi, 23km
Updated: Fri, 14-Dec-2018 4:53pm EST
Clear
Clear
 Wind from E
Wind: E 7 mph , 11 km/h
Temperature: 50°F , 10°C
Wind Chill: 47°F , 8°C
Dew Point: 37°F , 3°C
Humidity: 62%
Barometer: 30.11 inHg , 1019.6 hPa
Clouds: Clear
Visibility: 10 miles , 16 km
2018/12/14 21:53 KOSU 142153Z 09006KT 10SM CLR 10/03 A3011 RMK AO2 SLP201 T01000033
 
KLCK - Rickenbacker Ang, Ohio, USA
Distance from station: SSW 17mi, 27km
Updated: Fri, 14-Dec-2018 5:35pm EST
Mostly cloudy
Mostly cloudy
 Wind from ESE
Wind: ESE 6 mph , 9 km/h
Temperature: 48°F , 9°C
Wind Chill: 45°F , 7°C
Dew Point: 39°F , 4°C
Humidity: 71%
Barometer: 30.13 inHg , 1020.3 hPa
Clouds: Mostly cloudy
Visibility: 10 miles , 16 km
Cloud details: Mostly cloudy 8000 ft
2018/12/14 22:35 KLCK 142235Z AUTO 12005KT 10SM BKN080 09/04 A3013 RMK AO2 T00870041
KVTA - Newark, Ohio, USA
Distance from station: E 19mi, 30km
Updated: Fri, 14-Dec-2018 4:54pm EST
Few Clouds
Few Clouds
 Wind from E
Wind: E 3 mph , 6 km/h
Temperature: 54°F , 12°C
Dew Point: 41°F , 5°C
Humidity: 63%
Barometer: 30.12 inHg , 1020 hPa
Clouds: Few Clouds
Visibility: 10 miles , 16 km
Cloud details: Few Clouds 12000 ft
2018/12/14 21:54 KVTA 142154Z AUTO 10003KT 10SM FEW120 12/05 A3012 RMK AO2 SLP204 T01170050
 
KTZR - Columbus/Bolton, Ohio, USA
Distance from station: WSW 20mi, 31km
Updated: Fri, 14-Dec-2018 5:45pm EST
Clear
Clear
 Wind from calm
Wind: Calm
Temperature: 50°F , 10°C
Dew Point: 39°F , 4°C
Humidity: 67%
Barometer: 30.14 inHg , 1020.7 hPa
Clouds: Clear
Visibility: 10 miles , 16 km
2018/12/14 22:45 KTZR 142245Z 00000KT 10SM SKC 10/04 A3014
KLHQ - Lancaster, Ohio, USA
Distance from station: SSE 22mi, 36km
Updated: Fri, 14-Dec-2018 4:53pm EST
Few Clouds
Few Clouds
 Wind from ESE
Wind: ESE 5 mph , 7 km/h
Temperature: 50°F , 10°C
Wind Chill: 48°F , 9°C
Dew Point: 43°F , 6°C
Humidity: 76%
Barometer: 30.13 inHg , 1020.3 hPa
Clouds: Few Clouds
Visibility: 10 miles , 16 km
Cloud details: Few Clouds 12000 ft
2018/12/14 21:53 KLHQ 142153Z AUTO 11004KT 10SM FEW120 10/06 A3013 RMK AO2 SLP204 T01000056
 
KDLZ - Delaware, Ohio, USA
Distance from station: NW 23mi, 36km
Updated: Fri, 14-Dec-2018 5:35pm EST
Clear
Clear
 Wind from NE
Wind: NE 3 mph , 6 km/h
Temperature: 48°F , 9°C
Dew Point: 37°F , 3°C
Humidity: 66%
Barometer: 30.13 inHg , 1020.3 hPa
Clouds: Clear
Visibility: 10 miles , 16 km
2018/12/14 22:35 KDLZ 142235Z AUTO 05003KT 10SM CLR 09/03 A3013 RMK AO2
K4I3 - Mt Vernon/Knox, Ohio, USA
Distance from station: NE 25mi, 40km
Updated: Fri, 14-Dec-2018 5:37pm EST
Clear
Clear
 Wind from NE
Wind: NE 6 mph , 9 km/h
Temperature: 48°F , 9°C
Wind Chill: 45°F , 7°C
Dew Point: 39°F , 4°C
Humidity: 71%
Barometer: 30.15 inHg , 1021 hPa
Clouds: Clear
Visibility: 10 miles , 16 km
2018/12/14 22:37 K4I3 142237Z AUTO 05005KT 10SM CLR 09/04 A3015 RMK AO2
 
KMRT - Marysville, Ohio, USA
Distance from station: WNW 30mi, 49km
Updated: Fri, 14-Dec-2018 5:35pm EST
Clear
Clear
 Wind from NNE
Wind: NNE 5 mph , 7 km/h
Temperature: 48°F , 9°C
Wind Chill: 46°F , 8°C
Dew Point: 36°F , 2°C
Humidity: 62%
Barometer: 30.13 inHg , 1020.3 hPa
Clouds: Clear
Visibility: 10 miles , 16 km
2018/12/14 22:35 KMRT 142235Z AUTO 03004KT 10SM CLR 09/02 A3013 RMK AO2 T00880023
KMNN - Marion, Ohio, USA
Distance from station: NNW 41mi, 67km
Updated: Fri, 14-Dec-2018 4:53pm EST
Overcast
Overcast
 Wind from E
Wind: E 5 mph , 7 km/h
Temperature: 46°F , 8°C
Wind Chill: 44°F , 7°C
Dew Point: 41°F , 5°C
Humidity: 82%
Barometer: 30.14 inHg , 1020.7 hPa
Clouds: Overcast
Visibility: 10 miles , 16 km
Cloud details: Overcast 11000 ft
2018/12/14 21:53 KMNN 142153Z AUTO 09004KT 10SM OVC110 08/05 A3014 RMK AO2 SLP212 T00780050
 
KZZV - Zanesville, Ohio, USA
Distance from station: E 49mi, 79km
Updated: Fri, 14-Dec-2018 4:53pm EST
Overcast
Overcast
 Wind from SE
Wind: SE 7 mph , 11 km/h
Temperature: 52°F , 11°C
Dew Point: 46°F , 8°C
Humidity: 82%
Barometer: 30.15 inHg , 1021 hPa
Clouds: Overcast
Visibility: 10 miles , 16 km
Cloud details: Mostly cloudy 1300 ft
Overcast 5000 ft
2018/12/14 21:53 KZZV 142153Z AUTO 13006KT 10SM BKN013 OVC050 11/08 A3015 RMK AO2 SLP213 T01110078